Terminal Aerodrome Forecast
Issued by NWS

Home | Current Version | Previous Version | Text Only | Print | Product List | Glossary On
Versions: 1 2 3 4 5 6 7 8 9 10 11 12 13 14 15 16 17
000
FTUS43 KILX 281700 RRA
TAFCMI
TAF
KCMI 281743Z 2818/0118 11010KT P6SM SCT090
     FM282300 12007KT 6SM -SN OVC050
     FM010200 12006KT 3SM -SN BR OVC015
     FM010700 VRB03KT 1SM -SN BR OVC005
     FM011400 33004KT 2SM -SN BR OVC006=

USA.gov is the U.S. government's official web portal to all federal, state and local government web resources and services.